Time;durP1;ratioP1;P1;durP2;ratioP2;P2;SDS_P1;SDS_P2;PMS_P1;PMS_P2;Temp;Humidity;BMP_temperature;BMP_pressure;BME280_temperature;BME280_humidity;BME280_pressure;Samples;Min_cycle;Max_cycle;Signal;HPM_P1;HPM_P2
2021/07/01 00:01:01;;;;;;;3.85;3.65;;;22.70;67.20;;;;;;4989666;28;20049;-22
2021/07/01 00:03:27;;;;;;;3.88;3.67;;;22.70;67.10;;;;;;4991381;28;20378;-26
2021/07/01 00:05:53;;;;;;;4.05;3.85;;;22.70;66.90;;;;;;4989037;28;20058;-21
2021/07/01 00:08:18;;;;;;;4.60;4.32;;;22.70;67.00;;;;;;4990335;28;20073;-24
2021/07/01 00:10:44;;;;;;;4.00;3.80;;;22.70;66.90;;;;;;4986329;28;20053;-20
2021/07/01 00:13:09;;;;;;;4.03;3.75;;;22.70;67.00;;;;;;4984293;28;20027;-21
2021/07/01 00:15:35;;;;;;;3.78;3.58;;;22.60;67.10;;;;;;4986554;28;20082;-20
2021/07/01 00:18:01;;;;;;;4.18;3.97;;;22.60;67.10;;;;;;4987590;28;20037;-20
2021/07/01 00:20:27;;;;;;;3.78;3.58;;;22.70;67.10;;;;;;4977356;28;20042;-22
2021/07/01 00:22:52;;;;;;;4.10;3.90;;;22.60;66.90;;;;;;4981282;28;20030;-21
2021/07/01 00:25:19;;;;;;;4.65;4.35;;;22.60;67.10;;;;;;4983140;28;20026;-20
2021/07/01 00:27:45;;;;;;;3.83;3.63;;;22.60;67.00;;;;;;4975843;28;20029;-21
2021/07/01 00:30:12;;;;;;;4.30;4.10;;;22.60;66.90;;;;;;4988601;28;20030;-20
2021/07/01 00:32:38;;;;;;;4.00;3.80;;;22.70;66.90;;;;;;4965626;28;20030;-21
2021/07/01 00:35:05;;;;;;;4.45;4.25;;;22.60;67.00;;;;;;4998141;28;20045;-21
2021/07/01 00:37:32;;;;;;;3.75;3.58;;;22.60;66.80;;;;;;4980894;28;20019;-21
2021/07/01 00:39:59;;;;;;;3.95;3.65;;;22.60;66.90;;;;;;4985065;28;20565;-22
2021/07/01 00:42:25;;;;;;;4.03;3.83;;;22.70;67.20;;;;;;4986594;28;20018;-21
2021/07/01 00:44:50;;;;;;;3.85;3.65;;;22.70;66.90;;;;;;4978690;28;20038;-27
2021/07/01 00:47:16;;;;;;;3.70;3.50;;;22.70;66.90;;;;;;4989120;28;20491;-21
2021/07/01 00:49:43;;;;;;;4.03;3.75;;;22.70;66.90;;;;;;4976639;28;20102;-22
2021/07/01 00:52:10;;;;;;;3.58;3.47;;;22.70;66.80;;;;;;4996482;28;20033;-22
2021/07/01 00:54:36;;;;;;;3.72;3.53;;;22.80;66.80;;;;;;4988659;28;20500;-22
2021/07/01 00:57:01;;;;;;;3.83;3.63;;;22.70;66.70;;;;;;4984350;28;20030;-22
2021/07/01 00:59:27;;;;;;;3.78;3.58;;;22.70;66.70;;;;;;4989213;28;20031;-27
2021/07/01 01:01:53;;;;;;;3.70;3.50;;;22.70;66.70;;;;;;4970346;28;20037;-23
2021/07/01 01:04:18;;;;;;;3.47;3.17;;;22.80;66.70;;;;;;4988476;28;20073;-23
2021/07/01 01:06:45;;;;;;;3.70;3.50;;;22.80;66.60;;;;;;4984873;28;20030;-22
2021/07/01 01:09:10;;;;;;;3.40;3.30;;;22.80;66.60;;;;;;4972088;28;20316;-23
2021/07/01 01:11:36;;;;;;;3.28;3.17;;;22.80;66.70;;;;;;4987928;28;20540;-22
2021/07/01 01:14:02;;;;;;;3.38;3.28;;;22.80;66.60;;;;;;4976301;28;20061;-22
2021/07/01 01:16:28;;;;;;;3.22;3.10;;;22.80;66.40;;;;;;4976037;28;20047;-31
2021/07/01 01:18:54;;;;;;;3.35;3.15;;;22.80;66.50;;;;;;4976844;28;20026;-25
2021/07/01 01:21:29;;;;;;;3.03;2.92;;;22.80;66.50;;;;;;4987894;28;20650;-22
2021/07/01 01:23:55;;;;;;;3.20;3.10;;;22.80;66.50;;;;;;4987095;28;20032;-23
2021/07/01 01:26:20;;;;;;;3.20;3.05;;;22.80;66.50;;;;;;4977957;28;20038;-22
2021/07/01 01:28:46;;;;;;;3.10;3.00;;;22.80;66.60;;;;;;4985493;28;20080;-22
2021/07/01 01:31:12;;;;;;;3.40;3.30;;;22.80;66.60;;;;;;4980195;28;20093;-25
2021/07/01 01:33:37;;;;;;;3.35;3.25;;;22.80;66.50;;;;;;4976110;28;20077;-22
2021/07/01 01:36:03;;;;;;;3.33;3.22;;;22.80;66.40;;;;;;4986532;28;20484;-27
2021/07/01 01:38:29;;;;;;;3.22;3.13;;;22.80;66.30;;;;;;4989103;28;20026;-22
2021/07/01 01:40:54;;;;;;;3.58;3.38;;;22.80;66.40;;;;;;4976008;28;20129;-22
2021/07/01 01:43:21;;;;;;;3.15;3.05;;;22.90;66.20;;;;;;4975562;28;20025;-22
2021/07/01 01:45:46;;;;;;;2.95;2.85;;;22.80;66.40;;;;;;4975580;28;20030;-23
2021/07/01 01:48:12;;;;;;;2.95;2.80;;;22.80;66.30;;;;;;4977299;28;20612;-19
2021/07/01 01:50:38;;;;;;;3.40;3.20;;;22.80;66.50;;;;;;4988601;28;20421;-19
2021/07/01 01:53:04;;;;;;;2.70;2.60;;;22.80;66.30;;;;;;4975548;28;20027;-20
2021/07/01 01:55:30;;;;;;;2.90;2.80;;;22.80;66.30;;;;;;4982262;28;20433;-19
2021/07/01 01:57:56;;;;;;;3.03;2.92;;;22.80;66.50;;;;;;4982763;28;20031;-24
2021/07/01 02:00:22;;;;;;;3.30;3.20;;;22.80;66.50;;;;;;4974299;28;20113;-20
2021/07/01 02:02:48;;;;;;;2.70;2.60;;;22.80;66.40;;;;;;4980081;28;20066;-19
2021/07/01 02:05:14;;;;;;;3.25;3.00;;;22.80;66.40;;;;;;4975267;28;20081;-19
2021/07/01 02:07:39;;;;;;;3.40;3.20;;;22.80;66.40;;;;;;4984044;28;20029;-20
2021/07/01 02:10:13;;;;;;;3.25;3.15;;;22.80;66.40;;;;;;4981461;28;20046;-19
2021/07/01 02:12:39;;;;;;;2.97;2.88;;;22.80;66.30;;;;;;4975227;28;20018;-19
2021/07/01 02:15:08;;;;;;;3.35;2.72;;;22.80;66.30;;;;;;4973566;28;20039;-20
2021/07/01 02:17:34;;;;;;;2.75;2.65;;;22.80;66.20;;;;;;4973434;28;20031;-19
2021/07/01 02:20:11;;;;;;;3.05;2.95;;;22.80;66.30;;;;;;4976522;28;20050;-20
2021/07/01 02:22:37;;;;;;;2.90;2.80;;;22.70;66.40;;;;;;4981729;28;20026;-19
2021/07/01 02:25:03;;;;;;;3.00;2.80;;;22.70;66.40;;;;;;4982023;28;20128;-19
2021/07/01 02:27:28;;;;;;;3.00;2.83;;;22.80;66.30;;;;;;4974955;28;20050;-19
2021/07/01 02:29:54;;;;;;;2.75;2.65;;;22.70;66.20;;;;;;4973513;28;20116;-19
2021/07/01 02:32:20;;;;;;;2.83;2.72;;;22.70;66.10;;;;;;4975586;28;20397;-20
2021/07/01 02:34:45;;;;;;;3.00;2.90;;;22.70;66.10;;;;;;4986211;28;20042;-19
2021/07/01 02:37:11;;;;;;;2.90;2.80;;;22.80;66.20;;;;;;4984260;28;20035;-19
2021/07/01 02:39:37;;;;;;;2.83;2.72;;;22.80;66.10;;;;;;4978599;28;20057;-19
2021/07/01 02:42:02;;;;;;;2.83;2.72;;;22.70;66.10;;;;;;4977426;28;20302;-19
2021/07/01 02:44:28;;;;;;;2.83;2.72;;;22.70;66.10;;;;;;4977669;28;20030;-19
2021/07/01 02:46:54;;;;;;;3.13;3.03;;;22.70;66.20;;;;;;4979098;28;20058;-19
2021/07/01 02:49:20;;;;;;;2.90;2.80;;;22.70;66.30;;;;;;4978505;28;20586;-20
2021/07/01 02:51:46;;;;;;;3.00;2.90;;;22.70;66.30;;;;;;4978001;28;20054;-18
2021/07/01 02:54:11;;;;;;;3.17;2.97;;;22.70;66.40;;;;;;4976079;28;20033;-17
2021/07/01 02:56:40;;;;;;;3.08;2.97;;;22.70;66.40;;;;;;4976201;28;20023;-17
2021/07/01 02:59:09;;;;;;;3.38;3.28;;;22.70;66.50;;;;;;4978056;28;20035;-17
2021/07/01 03:01:35;;;;;;;3.10;3.00;;;22.60;66.30;;;;;;4980674;28;20089;-20
2021/07/01 03:04:01;;;;;;;2.92;2.83;;;22.60;66.30;;;;;;4985488;28;20379;-19
2021/07/01 03:06:26;;;;;;;2.92;2.83;;;22.60;66.30;;;;;;4977418;28;20126;-22
2021/07/01 03:08:54;;;;;;;2.70;2.60;;;22.60;66.30;;;;;;4989457;28;20023;-18
2021/07/01 03:11:20;;;;;;;2.88;2.67;;;22.60;66.30;;;;;;4978152;28;20034;-18
2021/07/01 03:13:46;;;;;;;2.80;2.70;;;22.70;66.30;;;;;;4988137;28;20026;-17
2021/07/01 03:16:19;;;;;;;3.00;2.90;;;22.60;66.20;;;;;;4981779;28;20034;-17
2021/07/01 03:18:49;;;;;;;2.90;2.80;;;22.60;66.30;;;;;;4988915;28;20102;-19
2021/07/01 03:21:15;;;;;;;2.67;2.58;;;22.60;66.10;;;;;;4990093;28;20054;-20
2021/07/01 03:23:41;;;;;;;2.67;2.58;;;22.60;66.20;;;;;;4991181;28;20533;-20
2021/07/01 03:26:06;;;;;;;2.88;2.78;;;22.60;66.30;;;;;;4977906;28;20027;-20
2021/07/01 03:28:32;;;;;;;2.60;2.50;;;22.60;66.40;;;;;;4977850;28;20029;-17
2021/07/01 03:30:57;;;;;;;2.17;2.08;;;22.50;66.30;;;;;;4979718;28;20035;-17
2021/07/01 03:33:23;;;;;;;2.80;2.70;;;22.60;66.30;;;;;;4976729;28;20041;-17
2021/07/01 03:35:49;;;;;;;2.40;2.30;;;22.60;66.30;;;;;;4989967;28;20066;-18
2021/07/01 03:38:14;;;;;;;2.67;2.58;;;22.60;66.30;;;;;;4977356;28;20077;-17
2021/07/01 03:40:40;;;;;;;2.90;2.70;;;22.60;66.20;;;;;;4977585;28;20035;-17
2021/07/01 03:43:05;;;;;;;2.80;2.70;;;22.50;66.40;;;;;;4981010;28;20574;-17
2021/07/01 03:45:31;;;;;;;2.28;2.17;;;22.50;66.60;;;;;;4988357;28;20041;-18
2021/07/01 03:47:56;;;;;;;2.40;2.30;;;22.50;66.40;;;;;;4989094;28;20425;-18
2021/07/01 03:50:22;;;;;;;2.50;2.40;;;22.50;66.50;;;;;;4986865;28;20034;-17
2021/07/01 03:52:48;;;;;;;2.58;2.47;;;22.50;66.40;;;;;;4971856;28;20041;-26
2021/07/01 03:55:13;;;;;;;2.53;2.42;;;22.60;66.50;;;;;;4986005;28;20038;-17
2021/07/01 03:57:39;;;;;;;2.22;2.13;;;22.60;67.10;;;;;;4997245;28;20033;-17
2021/07/01 04:00:05;;;;;;;2.08;1.98;;;22.50;66.30;;;;;;4981307;28;20110;-17
2021/07/01 04:02:31;;;;;;;2.47;2.38;;;22.50;66.30;;;;;;4986784;28;20089;-20
2021/07/01 04:04:56;;;;;;;2.40;2.30;;;22.60;66.30;;;;;;4977932;28;20051;-19
2021/07/01 04:07:22;;;;;;;2.20;2.10;;;22.50;66.30;;;;;;4980604;28;20027;-21
2021/07/01 04:09:48;;;;;;;2.38;2.20;;;22.50;66.30;;;;;;4985391;28;20030;-23
2021/07/01 04:12:13;;;;;;;2.72;2.63;;;22.50;66.30;;;;;;4974732;28;20035;-17
2021/07/01 04:14:39;;;;;;;2.15;2.05;;;22.50;66.30;;;;;;4988468;28;20034;-17
2021/07/01 04:17:04;;;;;;;2.35;2.25;;;22.50;66.30;;;;;;4977294;28;20499;-17
2021/07/01 04:19:30;;;;;;;2.28;2.17;;;22.50;66.20;;;;;;4984836;28;20078;-17
2021/07/01 04:21:55;;;;;;;2.15;2.05;;;22.50;66.30;;;;;;4984246;28;20125;-19
2021/07/01 04:24:21;;;;;;;2.40;2.30;;;22.50;66.30;;;;;;4981327;28;20084;-17
2021/07/01 04:26:47;;;;;;;2.13;2.03;;;22.50;66.30;;;;;;4973908;28;20031;-17
2021/07/01 04:29:12;;;;;;;2.03;1.92;;;22.50;66.40;;;;;;4976546;28;20085;-17
2021/07/01 04:31:38;;;;;;;2.45;2.35;;;22.50;66.30;;;;;;4976934;28;20122;-17
2021/07/01 04:34:04;;;;;;;1.90;1.85;;;22.50;66.30;;;;;;4982527;28;20038;-17
2021/07/01 04:36:29;;;;;;;2.17;2.03;;;22.50;66.30;;;;;;4987696;28;20056;-17
2021/07/01 04:38:55;;;;;;;1.98;1.98;;;22.50;66.20;;;;;;4986458;28;20038;-18
2021/07/01 04:41:21;;;;;;;1.92;1.92;;;22.50;66.10;;;;;;4975260;28;20034;-19
2021/07/01 04:43:47;;;;;;;2.13;2.03;;;22.50;66.30;;;;;;4987929;28;20019;-18
2021/07/01 04:46:13;;;;;;;1.92;1.83;;;22.50;66.30;;;;;;4988218;28;20077;-19
2021/07/01 04:48:40;;;;;;;1.70;1.70;;;22.50;66.30;;;;;;4987575;28;20400;-19
2021/07/01 04:51:05;;;;;;;1.83;1.83;;;22.40;66.20;;;;;;4988265;28;20034;-20
2021/07/01 04:53:31;;;;;;;1.70;1.60;;;22.50;66.30;;;;;;4988927;28;20026;-19
2021/07/01 04:55:56;;;;;;;2.13;2.03;;;22.50;66.10;;;;;;4989220;28;20080;-20
2021/07/01 04:58:22;;;;;;;2.08;1.98;;;22.50;66.10;;;;;;4987879;28;20405;-20
2021/07/01 05:00:48;;;;;;;2.15;1.80;;;22.40;66.20;;;;;;4987758;28;20042;-18
2021/07/01 05:03:14;;;;;;;1.75;1.75;;;22.40;66.20;;;;;;4988347;28;20018;-20
2021/07/01 05:05:40;;;;;;;1.98;1.88;;;22.50;66.20;;;;;;4987982;28;20054;-21
2021/07/01 05:08:06;;;;;;;2.03;1.80;;;22.40;66.20;;;;;;4989276;28;20027;-21
2021/07/01 05:10:31;;;;;;;1.65;1.55;;;22.40;66.20;;;;;;4987699;28;20497;-20
2021/07/01 05:12:58;;;;;;;1.55;1.55;;;22.40;66.10;;;;;;4982695;28;20394;-18
2021/07/01 05:15:23;;;;;;;2.22;2.13;;;22.40;66.20;;;;;;4975535;28;20489;-18
2021/07/01 05:17:49;;;;;;;1.60;1.55;;;22.40;66.10;;;;;;4988296;28;20037;-18
2021/07/01 05:20:14;;;;;;;1.75;1.65;;;22.50;66.20;;;;;;4975204;28;20041;-19
2021/07/01 05:22:40;;;;;;;1.73;1.63;;;22.50;66.30;;;;;;4985006;28;20030;-18
2021/07/01 05:25:06;;;;;;;1.27;1.27;;;22.40;66.20;;;;;;4985797;28;20057;-18
2021/07/01 05:27:32;;;;;;;1.80;1.70;;;22.40;66.20;;;;;;4986652;28;20054;-19
2021/07/01 05:29:57;;;;;;;1.45;1.45;;;22.40;66.10;;;;;;4971550;28;20046;-18
2021/07/01 05:32:23;;;;;;;1.67;1.60;;;22.40;66.20;;;;;;4988990;28;20084;-20
2021/07/01 05:34:49;;;;;;;1.52;1.42;;;22.40;66.20;;;;;;4985912;28;20113;-22
2021/07/01 05:37:15;;;;;;;1.90;1.80;;;22.40;66.30;;;;;;4968356;28;20026;-21
2021/07/01 05:39:40;;;;;;;1.80;1.70;;;22.40;66.30;;;;;;4985791;28;20049;-19
2021/07/01 05:42:06;;;;;;;1.75;1.70;;;22.40;66.20;;;;;;4986465;28;20105;-19
2021/07/01 05:44:32;;;;;;;1.55;1.55;;;22.40;66.10;;;;;;4988138;28;20024;-20
2021/07/01 05:46:57;;;;;;;1.70;1.70;;;22.40;66.10;;;;;;4988009;28;20030;-19
2021/07/01 05:49:23;;;;;;;1.67;1.65;;;22.40;66.20;;;;;;4985849;28;20025;-20
2021/07/01 05:51:52;;;;;;;1.52;1.50;;;22.40;66.20;;;;;;4986824;28;20053;-21
2021/07/01 05:56:46;;;;;;;1.65;1.55;;;22.40;66.30;;;;;;4985893;28;20022;-19
2021/07/01 05:59:11;;;;;;;1.60;1.50;;;22.40;66.40;;;;;;4970612;28;20193;-19
2021/07/01 06:01:37;;;;;;;1.40;1.40;;;22.30;66.70;;;;;;4985884;28;20037;-21
2021/07/01 06:04:06;;;;;;;1.80;1.70;;;22.30;67.10;;;;;;4967588;28;20046;-25
2021/07/01 06:06:33;;;;;;;1.33;1.33;;;22.30;67.90;;;;;;4985895;28;20689;-23
2021/07/01 06:08:59;;;;;;;2.63;2.00;;;22.30;68.10;;;;;;4985338;28;20034;-19
2021/07/01 06:11:24;;;;;;;1.70;1.55;;;22.30;68.00;;;;;;4957852;28;20023;-19
2021/07/01 06:13:50;;;;;;;2.22;1.88;;;22.40;67.80;;;;;;4990732;28;20181;-20
2021/07/01 06:16:16;;;;;;;1.92;1.83;;;22.30;68.50;;;;;;4971988;28;20408;-20
2021/07/01 06:18:42;;;;;;;1.92;1.83;;;22.40;67.90;;;;;;4971590;28;20030;-19
2021/07/01 06:21:07;;;;;;;2.08;1.98;;;22.40;67.90;;;;;;4988257;28;20571;-25
2021/07/01 06:23:33;;;;;;;1.58;1.58;;;22.40;67.90;;;;;;4991706;28;20030;-20
2021/07/01 06:25:59;;;;;;;2.95;1.70;;;22.40;68.00;;;;;;4990155;28;20567;-20
2021/07/01 06:28:26;;;;;;;2.45;1.90;;;22.40;67.80;;;;;;4989286;28;20031;-22
2021/07/01 06:30:52;;;;;;;1.63;1.52;;;22.40;68.50;;;;;;4987085;28;20109;-20
2021/07/01 06:33:19;;;;;;;4.93;1.70;;;22.40;67.60;;;;;;4989665;28;20875;-20
2021/07/01 06:35:49;;;;;;;1.83;1.73;;;22.50;67.50;;;;;;4990224;28;20408;-20
2021/07/01 06:38:15;;;;;;;1.92;1.83;;;22.50;67.40;;;;;;4991061;28;20042;-20
2021/07/01 06:40:41;;;;;;;1.70;1.60;;;22.50;67.40;;;;;;4990201;28;20037;-19
2021/07/01 06:43:07;;;;;;;1.67;1.58;;;22.50;67.30;;;;;;4972698;28;20022;-19
2021/07/01 06:45:33;;;;;;;1.50;1.40;;;22.50;67.30;;;;;;4990241;28;20033;-19
2021/07/01 06:47:59;;;;;;;1.85;1.75;;;22.50;67.30;;;;;;4989700;28;20077;-20
2021/07/01 06:50:29;;;;;;;1.40;1.40;;;22.50;67.20;;;;;;4973296;28;20038;-28
2021/07/01 06:52:55;;;;;;;1.63;1.52;;;22.50;67.00;;;;;;4990824;28;20393;-21
2021/07/01 06:55:21;;;;;;;1.73;1.65;;;22.50;67.10;;;;;;4989187;28;20053;-27
2021/07/01 06:57:47;;;;;;;1.80;1.70;;;22.50;67.20;;;;;;4989632;28;20022;-21
2021/07/01 07:00:14;;;;;;;1.70;1.60;;;22.40;67.30;;;;;;4987434;28;20041;-20
2021/07/01 07:02:42;;;;;;;3.53;1.60;;;22.40;67.40;;;;;;4973317;28;20022;-21
2021/07/01 07:05:09;;;;;;;1.65;1.55;;;22.40;67.30;;;;;;4988921;28;20050;-21
2021/07/01 07:07:35;;;;;;;1.23;1.23;;;22.40;67.20;;;;;;4989213;28;20027;-21
2021/07/01 07:10:04;;;;;;;1.58;1.15;;;22.50;67.10;;;;;;4972251;28;20039;-23
2021/07/01 07:12:31;;;;;;;1.42;1.33;;;22.50;67.10;;;;;;4989441;28;20031;-23
2021/07/01 07:14:57;;;;;;;1.20;1.20;;;22.50;67.00;;;;;;4989582;28;20548;-22
2021/07/01 07:17:27;;;;;;;1.27;1.23;;;22.50;66.80;;;;;;4990553;28;20026;-22
2021/07/01 07:19:53;;;;;;;1.50;1.50;;;22.50;66.70;;;;;;4988170;28;20501;-22
2021/07/01 07:22:19;;;;;;;1.30;1.30;;;22.50;66.70;;;;;;4970128;28;20023;-26
2021/07/01 07:24:46;;;;;;;1.58;1.48;;;22.60;66.70;;;;;;4971896;28;20038;-21
2021/07/01 07:27:12;;;;;;;1.35;1.25;;;22.60;66.70;;;;;;4953709;28;20023;-21
2021/07/01 07:29:39;;;;;;;1.70;1.60;;;22.60;66.70;;;;;;4973599;28;20511;-21
2021/07/01 07:32:05;;;;;;;1.20;1.20;;;22.60;66.70;;;;;;4956375;28;20034;-22
2021/07/01 07:34:32;;;;;;;1.27;1.27;;;22.60;66.90;;;;;;4969692;28;20029;-26
2021/07/01 07:36:58;;;;;;;1.77;1.67;;;22.50;67.10;;;;;;4967994;28;20106;-18
2021/07/01 07:39:24;;;;;;;1.35;1.35;;;22.50;67.20;;;;;;4986080;28;20531;-18
2021/07/01 07:41:49;;;;;;;1.50;1.40;;;22.50;67.00;;;;;;4990269;28;20038;-20
2021/07/01 07:44:15;;;;;;;1.42;1.42;;;22.60;66.70;;;;;;4961367;28;20117;-18
2021/07/01 07:46:41;;;;;;;1.75;1.65;;;22.60;66.70;;;;;;5000677;28;20034;-20
2021/07/01 07:49:07;;;;;;;7.68;1.70;;;22.60;66.70;;;;;;4633679;28;10000061;-30
2021/07/01 07:51:33;;;;;;;1.80;1.70;;;22.70;66.60;;;;;;4973938;28;20018;-20
2021/07/01 07:54:01;;;;;;;2.47;1.90;;;22.70;66.40;;;;;;4969756;28;20101;-20
2021/07/01 07:56:36;;;;;;;2.25;2.15;;;22.70;66.30;;;;;;4987138;28;20022;-20
2021/07/01 07:59:02;;;;;;;2.20;2.10;;;22.70;66.20;;;;;;4972427;28;20030;-21
2021/07/01 08:01:32;;;;;;;2.08;1.98;;;22.70;66.00;;;;;;4977379;28;20508;-21
2021/07/01 08:03:58;;;;;;;2.38;2.13;;;22.70;66.70;;;;;;4981924;28;20105;-20
2021/07/01 08:06:24;;;;;;;2.50;2.40;;;22.80;65.60;;;;;;4969758;28;20129;-20
2021/07/01 08:08:50;;;;;;;2.20;2.10;;;22.80;65.60;;;;;;4971276;28;20100;-21
2021/07/01 08:11:15;;;;;;;2.25;2.15;;;22.80;65.40;;;;;;4973385;28;20041;-19
2021/07/01 08:13:41;;;;;;;2.65;2.33;;;22.80;65.30;;;;;;4985210;28;20111;-25
2021/07/01 08:16:06;;;;;;;2.28;2.17;;;22.80;65.60;;;;;;4975248;28;20122;-18
2021/07/01 08:18:39;;;;;;;3.28;2.90;;;22.70;65.40;;;;;;4981351;28;20536;-21
2021/07/01 08:21:06;;;;;;;2.50;2.40;;;22.80;65.50;;;;;;4983497;28;20061;-21
2021/07/01 08:23:32;;;;;;;2.50;2.40;;;22.90;65.10;;;;;;4990829;28;20425;-21
2021/07/01 08:25:59;;;;;;;2.63;2.53;;;22.90;64.60;;;;;;4976960;28;20038;-21
2021/07/01 08:28:24;;;;;;;6.05;2.65;;;23.00;64.70;;;;;;4983951;28;20040;-21
2021/07/01 08:30:50;;;;;;;3.00;2.80;;;23.10;64.80;;;;;;4984954;28;20030;-21
2021/07/01 08:33:20;;;;;;;3.83;3.63;;;23.00;63.80;;;;;;4978335;28;20397;-22
2021/07/01 08:35:50;;;;;;;3.58;3.38;;;23.10;63.70;;;;;;4981727;28;20066;-20
2021/07/01 08:38:16;;;;;;;3.72;3.53;;;23.00;63.00;;;;;;4983666;28;20114;-20
2021/07/01 08:40:42;;;;;;;3.50;3.30;;;23.00;62.60;;;;;;4987251;28;20030;-21
2021/07/01 08:43:08;;;;;;;3.50;3.20;;;23.00;62.80;;;;;;4953684;28;20027;-20
2021/07/01 08:46:11;;;;;;;3.50;3.20;;;23.20;62.50;;;;;;4968989;28;20038;-21
2021/07/01 08:48:59;;;;;;;3.75;3.45;;;23.20;62.10;;;;;;4980847;28;20026;-21
2021/07/01 08:51:37;;;;;;;4.20;3.90;;;23.20;62.30;;;;;;4983490;28;20019;-21
2021/07/01 08:54:08;;;;;;;4.28;3.97;;;23.10;62.30;;;;;;4985785;28;20148;-21
2021/07/01 08:56:35;;;;;;;3.88;3.67;;;23.10;62.60;;;;;;4986418;28;20030;-20
2021/07/01 08:59:04;;;;;;;3.50;3.30;;;23.20;62.30;;;;;;4982635;28;20097;-21
2021/07/01 09:01:30;;;;;;;3.42;3.17;;;23.20;62.50;;;;;;4978222;28;20043;-20
2021/07/01 09:03:58;;;;;;;3.85;3.55;;;23.30;62.10;;;;;;4975434;28;20054;-24
2021/07/01 09:06:24;;;;;;;3.65;3.45;;;23.30;62.80;;;;;;4974300;28;20096;-19
2021/07/01 09:08:51;;;;;;;3.58;3.38;;;23.20;62.10;;;;;;4977135;28;20453;-21
2021/07/01 09:11:17;;;;;;;3.70;3.50;;;23.30;62.10;;;;;;4985082;28;20393;-20
2021/07/01 09:13:47;;;;;;;3.78;3.58;;;23.30;62.30;;;;;;4976698;28;20022;-19
2021/07/01 09:16:14;;;;;;;3.53;3.33;;;23.30;62.60;;;;;;4974860;28;20694;-19
2021/07/01 09:18:40;;;;;;;3.70;3.50;;;23.30;62.50;;;;;;4972637;28;20061;-19
2021/07/01 09:21:06;;;;;;;3.60;3.40;;;23.40;62.60;;;;;;4986655;28;20043;-18
2021/07/01 09:23:31;;;;;;;4.00;3.70;;;23.40;62.50;;;;;;4973662;28;20494;-20
2021/07/01 09:26:00;;;;;;;4.05;3.85;;;23.40;62.30;;;;;;4979885;28;20196;-24
2021/07/01 09:28:25;;;;;;;3.78;3.58;;;23.40;62.00;;;;;;4954204;28;20038;-20
2021/07/01 09:30:54;;;;;;;3.22;3.03;;;23.30;62.10;;;;;;4955276;28;20034;-20
2021/07/01 09:33:19;;;;;;;3.47;3.28;;;23.10;62.40;;;;;;4978621;28;20080;-20
2021/07/01 09:35:45;;;;;;;3.38;3.17;;;23.10;62.30;;;;;;4965836;28;20964;-20
2021/07/01 09:38:11;;;;;;;4.20;3.92;;;23.10;63.00;;;;;;4979232;28;20039;-20
2021/07/01 09:40:37;;;;;;;3.65;3.45;;;23.20;62.70;;;;;;4962804;28;20039;-20
2021/07/01 09:43:04;;;;;;;3.85;3.55;;;23.10;62.50;;;;;;4968236;28;20517;-19
2021/07/01 09:45:31;;;;;;;4.10;3.67;;;23.10;62.70;;;;;;4963577;28;20089;-19
2021/07/01 09:48:09;;;;;;;4.10;3.80;;;23.10;63.00;;;;;;4986775;28;20544;-20
2021/07/01 09:50:44;;;;;;;4.97;4.57;;;23.20;62.10;;;;;;4987270;28;20030;-20
2021/07/01 09:53:11;;;;;;;5.38;4.97;;;23.20;62.00;;;;;;4989267;28;20169;-20
2021/07/01 09:55:36;;;;;;;6.13;5.68;;;23.30;62.30;;;;;;4969431;28;20057;-20
2021/07/01 09:58:10;;;;;;;6.75;5.88;;;23.20;62.60;;;;;;4950336;28;20066;-20
2021/07/01 10:00:36;;;;;;;7.20;5.80;;;23.30;62.60;;;;;;4994688;28;20117;-20
2021/07/01 10:03:08;;;;;;;6.63;6.22;;;23.30;62.40;;;;;;4983831;28;20105;-24
2021/07/01 10:05:35;;;;;;;6.75;6.25;;;23.20;62.60;;;;;;4988927;28;20144;-21
2021/07/01 10:08:01;;;;;;;7.68;7.03;;;23.30;62.50;;;;;;4986603;28;20022;-22
2021/07/01 10:10:26;;;;;;;9.68;8.68;;;23.20;62.80;;;;;;4986426;28;20081;-21
2021/07/01 10:12:58;;;;;;;8.90;8.10;;;23.20;62.80;;;;;;4986381;28;20101;-20
2021/07/01 10:15:31;;;;;;;8.18;7.47;;;23.10;62.80;;;;;;4985983;28;20524;-21
2021/07/01 10:18:06;;;;;;;9.82;8.80;;;23.10;63.00;;;;;;4987388;28;20035;-22
2021/07/01 10:20:48;;;;;;;20.17;14.82;;;23.40;63.10;;;;;;4962831;28;20311;-22
2021/07/01 10:23:28;;;;;;;17.70;12.73;;;23.30;63.90;;;;;;4981122;28;20030;-20
2021/07/01 10:26:08;;;;;;;15.02;12.55;;;23.20;63.40;;;;;;4994411;28;20030;-23
2021/07/01 10:28:33;;;;;;;20.45;14.95;;;23.30;63.40;;;;;;4965381;28;20970;-18
2021/07/01 10:31:10;;;;;;;24.05;17.83;;;23.40;63.90;;;;;;4967540;28;20038;-22
2021/07/01 10:33:38;;;;;;;23.55;16.27;;;23.50;63.10;;;;;;4974014;28;20585;-18
2021/07/01 10:36:05;;;;;;;18.70;15.55;;;23.40;63.10;;;;;;4989867;28;20030;-18
2021/07/01 10:38:45;;;;;;;19.45;15.55;;;23.30;63.50;;;;;;4639447;28;9999750;-28
2021/07/01 10:41:11;;;;;;;22.38;18.38;;;23.40;63.30;;;;;;4985051;28;20065;-29
2021/07/01 10:43:41;;;;;;;23.52;18.42;;;23.40;63.10;;;;;;4965513;28;20386;-24
2021/07/01 10:46:07;;;;;;;18.10;16.05;;;23.40;63.50;;;;;;4980689;28;20686;-20
2021/07/01 10:48:32;;;;;;;21.90;16.75;;;23.40;63.70;;;;;;4983927;28;20619;-18
2021/07/01 10:51:12;;;;;;;16.48;13.40;;;23.50;63.50;;;;;;4965167;28;20564;-19
2021/07/01 10:53:44;;;;;;;13.85;11.43;;;23.40;63.30;;;;;;4981765;28;20053;-22
2021/07/01 10:56:16;;;;;;;12.43;10.95;;;23.30;63.60;;;;;;4984872;28;20038;-18
2021/07/01 10:58:42;;;;;;;11.00;9.63;;;23.30;63.60;;;;;;4984894;28;20153;-18
2021/07/01 11:01:07;;;;;;;9.00;8.27;;;23.40;63.60;;;;;;4984906;28;20049;-18
2021/07/01 11:03:34;;;;;;;8.68;7.95;;;23.40;63.40;;;;;;4985150;28;20030;-21
2021/07/01 11:06:02;;;;;;;8.52;7.70;;;23.50;63.50;;;;;;4986936;28;20613;-26
2021/07/01 11:08:33;;;;;;;9.55;8.60;;;23.50;63.50;;;;;;4984777;28;20037;-31
2021/07/01 11:11:00;;;;;;;8.30;7.60;;;23.40;63.70;;;;;;4985911;28;20034;-18
2021/07/01 11:13:27;;;;;;;8.60;7.80;;;23.50;63.70;;;;;;4986192;28;20045;-19
2021/07/01 11:16:07;;;;;;;7.82;7.20;;;23.40;63.90;;;;;;4981938;28;20036;-18
2021/07/01 11:18:36;;;;;;;6.40;5.78;;;23.50;64.00;;;;;;4981073;28;20053;-22
2021/07/01 11:21:05;;;;;;;6.28;5.85;;;23.60;63.90;;;;;;4984658;28;20038;-20
2021/07/01 11:23:31;;;;;;;6.10;5.60;;;23.60;64.50;;;;;;4983697;28;20496;-22
2021/07/01 11:25:56;;;;;;;5.68;5.28;;;23.60;64.00;;;;;;4986491;28;20117;-20
2021/07/01 11:28:26;;;;;;;4.93;4.63;;;23.50;64.40;;;;;;4966861;28;20084;-21
2021/07/01 11:31:10;;;;;;;4.32;3.92;;;23.60;64.40;;;;;;4986062;28;20026;-21
2021/07/01 11:33:35;;;;;;;4.53;4.07;;;23.60;64.30;;;;;;4984483;28;20054;-21
2021/07/01 11:36:12;;;;;;;5.68;5.25;;;23.50;64.30;;;;;;4986460;28;20081;-21
2021/07/01 11:38:38;;;;;;;5.32;4.82;;;23.50;64.40;;;;;;4983270;28;20073;-20
2021/07/01 11:41:04;;;;;;;4.03;3.83;;;23.50;64.40;;;;;;4986416;28;20503;-20
2021/07/01 11:43:30;;;;;;;4.00;3.70;;;23.50;64.30;;;;;;4986141;28;20464;-21
2021/07/01 11:45:56;;;;;;;3.95;3.65;;;23.60;64.00;;;;;;4985481;28;20031;-20
2021/07/01 11:48:22;;;;;;;3.88;3.58;;;23.60;63.60;;;;;;4982793;28;20686;-20
2021/07/01 11:50:52;;;;;;;5.53;3.15;;;23.60;63.60;;;;;;4985825;28;20026;-21
2021/07/01 11:53:18;;;;;;;3.28;3.17;;;23.60;63.20;;;;;;4984979;28;20026;-21
2021/07/01 11:55:47;;;;;;;3.63;3.40;;;23.60;64.00;;;;;;4982864;28;20049;-21
2021/07/01 11:58:13;;;;;;;3.40;3.22;;;23.60;63.00;;;;;;4983716;28;20445;-19
2021/07/01 12:00:39;;;;;;;3.40;3.20;;;23.60;63.10;;;;;;4984095;28;20046;-19
2021/07/01 12:03:05;;;;;;;3.17;2.97;;;23.50;63.50;;;;;;4986018;28;20078;-20
2021/07/01 12:05:31;;;;;;;3.35;3.15;;;23.60;63.40;;;;;;4978359;28;20398;-22
2021/07/01 12:07:57;;;;;;;3.45;3.25;;;23.50;63.60;;;;;;4970906;28;20041;-19
2021/07/01 12:10:23;;;;;;;2.78;2.67;;;23.60;63.70;;;;;;4970575;28;20027;-22
2021/07/01 12:12:50;;;;;;;2.75;2.65;;;23.70;63.70;;;;;;4972181;28;20120;-24
2021/07/01 12:15:16;;;;;;;3.13;2.90;;;23.60;63.80;;;;;;4988566;28;20077;-19
2021/07/01 12:17:51;;;;;;;3.15;2.95;;;23.60;63.60;;;;;;4987684;28;20037;-27
2021/07/01 12:20:38;;;;;;;3.03;2.88;;;23.60;63.60;;;;;;4990974;28;20034;-32
2021/07/01 12:23:11;;;;;;;2.83;2.72;;;23.60;63.80;;;;;;4971669;28;20035;-26
2021/07/01 12:25:36;;;;;;;2.80;2.70;;;23.50;64.20;;;;;;4971132;28;20076;-29
2021/07/01 12:28:08;;;;;;;3.50;2.75;;;23.60;64.20;;;;;;4982233;28;20140;-27
2021/07/01 12:30:56;;;;;;;2.40;2.30;;;23.60;64.00;;;;;;4987047;28;20030;-27
2021/07/01 12:33:43;;;;;;;2.85;2.75;;;23.60;64.00;;;;;;4985884;28;20129;-22
2021/07/01 12:36:13;;;;;;;2.65;2.55;;;23.60;64.00;;;;;;4985600;28;20031;-21
2021/07/01 12:38:40;;;;;;;3.00;2.80;;;23.70;64.20;;;;;;4984444;28;20113;-28
2021/07/01 12:41:10;;;;;;;2.70;2.60;;;23.80;63.80;;;;;;4982768;28;20034;-22
2021/07/01 12:43:51;;;;;;;2.83;2.65;;;23.90;63.50;;;;;;4979492;28;20109;-21
2021/07/01 12:46:41;;;;;;;2.85;2.75;;;23.70;63.70;;;;;;4982796;28;20118;-27
2021/07/01 12:49:21;;;;;;;2.88;2.78;;;23.60;63.30;;;;;;4980998;28;20496;-30